sensor_id;sensor_type;location;lat;lon;timestamp;P1;durP1;ratioP1;P2;durP2;ratioP2
84723;SDS011;74944;52.322;16.918;2023-12-14T16:39:28;18.98;;;9.70;;
84723;SDS011;74944;52.322;16.918;2023-12-14T16:41:55;17.45;;;7.20;;
84723;SDS011;74944;52.322;16.918;2023-12-14T16:44:20;15.18;;;6.95;;
84723;SDS011;74944;52.322;16.918;2023-12-14T16:46:46;21.23;;;9.32;;
84723;SDS011;74944;52.322;16.918;2023-12-14T16:49:11;15.60;;;7.03;;
84723;SDS011;74944;52.322;16.918;2023-12-14T16:51:36;14.67;;;6.93;;
84723;SDS011;74944;52.322;16.918;2023-12-14T16:54:52;19.02;;;9.07;;
84723;SDS011;74944;52.322;16.918;2023-12-14T16:57:18;14.70;;;7.63;;
84723;SDS011;74944;52.322;16.918;2023-12-14T16:59:46;19.10;;;8.43;;
84723;SDS011;74944;52.322;16.918;2023-12-14T17:02:12;16.85;;;8.45;;
84723;SDS011;74944;52.322;16.918;2023-12-14T17:04:39;21.55;;;8.50;;
84723;SDS011;74944;52.322;16.918;2023-12-14T17:07:06;15.93;;;7.68;;
84723;SDS011;74944;52.322;16.918;2023-12-14T17:09:31;23.15;;;11.63;;
84723;SDS011;74944;52.322;16.918;2023-12-14T17:11:57;16.90;;;8.57;;
84723;SDS011;74944;52.322;16.918;2023-12-14T17:14:23;15.20;;;8.30;;
84723;SDS011;74944;52.322;16.918;2023-12-14T17:16:49;18.55;;;8.90;;
84723;SDS011;74944;52.322;16.918;2023-12-14T17:19:14;15.73;;;8.10;;
84723;SDS011;74944;52.322;16.918;2023-12-14T17:21:40;14.52;;;7.53;;
84723;SDS011;74944;52.322;16.918;2023-12-14T17:24:06;15.98;;;8.45;;
84723;SDS011;74944;52.322;16.918;2023-12-14T17:26:35;19.17;;;9.15;;
84723;SDS011;74944;52.322;16.918;2023-12-14T17:29:01;19.35;;;9.32;;
84723;SDS011;74944;52.322;16.918;2023-12-14T17:31:28;21.88;;;10.23;;
84723;SDS011;74944;52.322;16.918;2023-12-14T17:33:54;17.42;;;9.00;;
84723;SDS011;74944;52.322;16.918;2023-12-14T17:36:20;19.90;;;8.68;;
84723;SDS011;74944;52.322;16.918;2023-12-14T17:38:46;19.25;;;9.75;;
84723;SDS011;74944;52.322;16.918;2023-12-14T17:41:15;17.67;;;8.60;;
84723;SDS011;74944;52.322;16.918;2023-12-14T17:43:41;20.25;;;9.82;;
84723;SDS011;74944;52.322;16.918;2023-12-14T17:46:07;18.35;;;9.63;;
84723;SDS011;74944;52.322;16.918;2023-12-14T17:48:33;20.75;;;10.13;;
84723;SDS011;74944;52.322;16.918;2023-12-14T17:51:00;20.88;;;9.23;;
84723;SDS011;74944;52.322;16.918;2023-12-14T17:53:26;20.05;;;9.77;;
84723;SDS011;74944;52.322;16.918;2023-12-14T17:55:52;18.98;;;9.63;;
84723;SDS011;74944;52.322;16.918;2023-12-14T17:58:20;17.40;;;9.00;;
84723;SDS011;74944;52.322;16.918;2023-12-14T18:00:46;18.17;;;8.85;;
84723;SDS011;74944;52.322;16.918;2023-12-14T18:03:12;14.98;;;8.35;;
84723;SDS011;74944;52.322;16.918;2023-12-14T18:05:39;27.65;;;10.52;;
84723;SDS011;74944;52.322;16.918;2023-12-14T18:08:05;30.63;;;12.45;;
84723;SDS011;74944;52.322;16.918;2023-12-14T18:10:31;26.17;;;10.65;;
84723;SDS011;74944;52.322;16.918;2023-12-14T18:12:57;41.30;;;14.25;;
84723;SDS011;74944;52.322;16.918;2023-12-14T18:15:25;44.70;;;16.15;;
84723;SDS011;74944;52.322;16.918;2023-12-14T18:17:51;44.83;;;16.67;;
84723;SDS011;74944;52.322;16.918;2023-12-14T18:20:17;52.78;;;18.52;;
84723;SDS011;74944;52.322;16.918;2023-12-14T18:22:43;33.97;;;14.43;;
84723;SDS011;74944;52.322;16.918;2023-12-14T18:25:09;39.17;;;15.73;;
84723;SDS011;74944;52.322;16.918;2023-12-14T18:27:35;31.23;;;14.18;;
84723;SDS011;74944;52.322;16.918;2023-12-14T18:30:00;31.85;;;13.02;;
84723;SDS011;74944;52.322;16.918;2023-12-14T18:32:27;27.33;;;11.85;;
84723;SDS011;74944;52.322;16.918;2023-12-14T18:34:53;33.75;;;15.40;;
84723;SDS011;74944;52.322;16.918;2023-12-14T18:37:19;35.42;;;14.13;;
84723;SDS011;74944;52.322;16.918;2023-12-14T18:39:45;45.30;;;17.52;;
84723;SDS011;74944;52.322;16.918;2023-12-14T18:42:11;25.65;;;12.23;;
84723;SDS011;74944;52.322;16.918;2023-12-14T18:44:37;29.52;;;13.85;;
84723;SDS011;74944;52.322;16.918;2023-12-14T18:47:03;33.65;;;14.18;;
84723;SDS011;74944;52.322;16.918;2023-12-14T18:49:30;33.40;;;15.10;;
84723;SDS011;74944;52.322;16.918;2023-12-14T18:51:56;22.02;;;10.50;;
84723;SDS011;74944;52.322;16.918;2023-12-14T18:54:21;24.35;;;11.25;;
84723;SDS011;74944;52.322;16.918;2023-12-14T18:56:48;24.38;;;10.52;;
84723;SDS011;74944;52.322;16.918;2023-12-14T18:59:15;23.33;;;12.10;;
84723;SDS011;74944;52.322;16.918;2023-12-14T19:01:41;26.15;;;12.10;;
84723;SDS011;74944;52.322;16.918;2023-12-14T19:04:06;26.58;;;12.60;;
84723;SDS011;74944;52.322;16.918;2023-12-14T19:06:32;25.83;;;13.07;;
84723;SDS011;74944;52.322;16.918;2023-12-14T19:08:58;26.00;;;13.70;;
84723;SDS011;74944;52.322;16.918;2023-12-14T19:11:23;27.08;;;12.50;;
84723;SDS011;74944;52.322;16.918;2023-12-14T19:13:49;31.75;;;14.95;;
84723;SDS011;74944;52.322;16.918;2023-12-14T19:16:23;21.58;;;12.00;;
84723;SDS011;74944;52.322;16.918;2023-12-14T19:18:50;25.13;;;12.38;;
84723;SDS011;74944;52.322;16.918;2023-12-14T19:21:19;38.58;;;18.25;;
84723;SDS011;74944;52.322;16.918;2023-12-14T19:23:45;34.42;;;18.90;;
84723;SDS011;74944;52.322;16.918;2023-12-14T19:26:21;55.42;;;22.52;;
84723;SDS011;74944;52.322;16.918;2023-12-14T19:28:51;129.52;;;46.72;;
84723;SDS011;74944;52.322;16.918;2023-12-14T19:31:18;162.13;;;54.90;;
84723;SDS011;74944;52.322;16.918;2023-12-14T19:33:45;153.52;;;51.45;;
84723;SDS011;74944;52.322;16.918;2023-12-14T19:36:11;124.10;;;43.28;;
84723;SDS011;74944;52.322;16.918;2023-12-14T19:38:39;74.00;;;30.38;;
84723;SDS011;74944;52.322;16.918;2023-12-14T19:41:08;55.53;;;23.15;;
84723;SDS011;74944;52.322;16.918;2023-12-14T19:43:35;41.90;;;18.00;;
84723;SDS011;74944;52.322;16.918;2023-12-14T19:46:01;41.78;;;18.95;;
84723;SDS011;74944;52.322;16.918;2023-12-14T19:48:27;38.67;;;17.25;;
84723;SDS011;74944;52.322;16.918;2023-12-14T19:50:54;32.58;;;15.95;;
84723;SDS011;74944;52.322;16.918;2023-12-14T19:53:22;40.22;;;16.52;;
84723;SDS011;74944;52.322;16.918;2023-12-14T19:55:48;52.72;;;21.55;;
84723;SDS011;74944;52.322;16.918;2023-12-14T19:58:14;56.38;;;23.75;;
84723;SDS011;74944;52.322;16.918;2023-12-14T20:00:39;56.47;;;23.70;;
84723;SDS011;74944;52.322;16.918;2023-12-14T20:03:05;50.45;;;22.75;;
84723;SDS011;74944;52.322;16.918;2023-12-14T20:05:32;55.80;;;24.52;;
84723;SDS011;74944;52.322;16.918;2023-12-14T20:07:58;55.60;;;23.02;;
84723;SDS011;74944;52.322;16.918;2023-12-14T20:10:24;54.63;;;24.23;;
84723;SDS011;74944;52.322;16.918;2023-12-14T20:15:15;105.68;;;39.47;;
84723;SDS011;74944;52.322;16.918;2023-12-14T20:17:41;89.75;;;34.83;;
84723;SDS011;74944;52.322;16.918;2023-12-14T20:20:07;93.80;;;37.30;;
84723;SDS011;74944;52.322;16.918;2023-12-14T20:22:34;101.72;;;37.38;;
84723;SDS011;74944;52.322;16.918;2023-12-14T20:25:01;123.20;;;42.75;;
84723;SDS011;74944;52.322;16.918;2023-12-14T20:27:28;112.93;;;40.75;;
84723;SDS011;74944;52.322;16.918;2023-12-14T20:29:54;147.00;;;48.50;;
84723;SDS011;74944;52.322;16.918;2023-12-14T20:32:19;120.72;;;42.42;;
84723;SDS011;74944;52.322;16.918;2023-12-14T20:37:11;125.80;;;42.65;;
84723;SDS011;74944;52.322;16.918;2023-12-14T20:39:36;87.43;;;34.03;;
84723;SDS011;74944;52.322;16.918;2023-12-14T20:42:02;75.15;;;29.77;;
84723;SDS011;74944;52.322;16.918;2023-12-14T20:46:54;52.00;;;20.38;;
84723;SDS011;74944;52.322;16.918;2023-12-14T20:51:46;67.53;;;25.70;;
84723;SDS011;74944;52.322;16.918;2023-12-14T20:54:12;59.92;;;26.05;;
84723;SDS011;74944;52.322;16.918;2023-12-14T20:56:38;58.63;;;25.40;;
84723;SDS011;74944;52.322;16.918;2023-12-14T20:59:04;60.00;;;26.25;;
84723;SDS011;74944;52.322;16.918;2023-12-14T21:03:56;56.85;;;26.42;;
84723;SDS011;74944;52.322;16.918;2023-12-14T21:06:22;61.97;;;25.55;;
84723;SDS011;74944;52.322;16.918;2023-12-14T21:08:48;63.85;;;28.70;;
84723;SDS011;74944;52.322;16.918;2023-12-14T21:11:14;58.58;;;25.08;;
84723;SDS011;74944;52.322;16.918;2023-12-14T21:13:40;60.53;;;25.48;;
84723;SDS011;74944;52.322;16.918;2023-12-14T21:16:06;69.10;;;29.98;;
84723;SDS011;74944;52.322;16.918;2023-12-14T21:18:32;69.63;;;30.60;;
84723;SDS011;74944;52.322;16.918;2023-12-14T21:23:24;59.88;;;26.98;;
84723;SDS011;74944;52.322;16.918;2023-12-14T21:28:34;73.53;;;33.08;;
84723;SDS011;74944;52.322;16.918;2023-12-14T21:31:01;86.18;;;32.35;;
84723;SDS011;74944;52.322;16.918;2023-12-14T21:33:29;82.07;;;33.65;;
84723;SDS011;74944;52.322;16.918;2023-12-14T21:35:55;81.60;;;33.30;;
84723;SDS011;74944;52.322;16.918;2023-12-14T21:40:47;80.63;;;33.13;;
84723;SDS011;74944;52.322;16.918;2023-12-14T21:43:13;75.20;;;32.83;;
84723;SDS011;74944;52.322;16.918;2023-12-14T21:45:40;81.80;;;33.35;;
84723;SDS011;74944;52.322;16.918;2023-12-14T21:48:07;74.13;;;30.90;;
84723;SDS011;74944;52.322;16.918;2023-12-14T21:52:59;73.45;;;30.38;;
84723;SDS011;74944;52.322;16.918;2023-12-14T21:55:25;77.93;;;33.03;;
84723;SDS011;74944;52.322;16.918;2023-12-14T21:57:50;80.25;;;34.08;;
84723;SDS011;74944;52.322;16.918;2023-12-14T22:02:44;86.05;;;34.90;;
84723;SDS011;74944;52.322;16.918;2023-12-14T22:07:35;73.60;;;31.10;;
84723;SDS011;74944;52.322;16.918;2023-12-14T22:12:28;65.78;;;27.58;;
84723;SDS011;74944;52.322;16.918;2023-12-14T22:14:55;218.23;;;69.40;;
84723;SDS011;74944;52.322;16.918;2023-12-14T22:17:20;128.60;;;46.20;;
84723;SDS011;74944;52.322;16.918;2023-12-14T22:19:46;113.93;;;43.13;;
84723;SDS011;74944;52.322;16.918;2023-12-14T22:22:12;92.80;;;37.95;;
84723;SDS011;74944;52.322;16.918;2023-12-14T22:27:03;66.53;;;31.15;;
84723;SDS011;74944;52.322;16.918;2023-12-14T22:29:29;73.00;;;31.85;;
84723;SDS011;74944;52.322;16.918;2023-12-14T22:34:21;82.88;;;32.08;;
84723;SDS011;74944;52.322;16.918;2023-12-14T22:36:46;70.53;;;31.90;;
84723;SDS011;74944;52.322;16.918;2023-12-14T22:41:38;112.28;;;41.97;;
84723;SDS011;74944;52.322;16.918;2023-12-14T22:46:29;93.78;;;36.08;;
84723;SDS011;74944;52.322;16.918;2023-12-14T22:48:55;92.25;;;39.00;;
84723;SDS011;74944;52.322;16.918;2023-12-14T22:53:47;117.47;;;43.40;;
84723;SDS011;74944;52.322;16.918;2023-12-14T22:56:19;114.60;;;45.35;;
84723;SDS011;74944;52.322;16.918;2023-12-14T22:58:49;112.25;;;42.60;;
84723;SDS011;74944;52.322;16.918;2023-12-14T23:01:35;91.95;;;36.25;;
84723;SDS011;74944;52.322;16.918;2023-12-14T23:04:02;73.43;;;31.10;;
84723;SDS011;74944;52.322;16.918;2023-12-14T23:06:29;79.10;;;34.28;;
84723;SDS011;74944;52.322;16.918;2023-12-14T23:08:57;79.57;;;34.63;;
84723;SDS011;74944;52.322;16.918;2023-12-14T23:11:23;77.80;;;32.13;;
84723;SDS011;74944;52.322;16.918;2023-12-14T23:13:49;89.50;;;38.20;;
84723;SDS011;74944;52.322;16.918;2023-12-14T23:16:15;93.05;;;40.03;;
84723;SDS011;74944;52.322;16.918;2023-12-14T23:18:41;96.38;;;42.95;;
84723;SDS011;74944;52.322;16.918;2023-12-14T23:21:07;105.35;;;45.92;;
84723;SDS011;74944;52.322;16.918;2023-12-14T23:23:33;84.18;;;36.08;;
84723;SDS011;74944;52.322;16.918;2023-12-14T23:26:00;87.35;;;37.30;;
84723;SDS011;74944;52.322;16.918;2023-12-14T23:28:25;91.90;;;37.35;;
84723;SDS011;74944;52.322;16.918;2023-12-14T23:30:51;75.65;;;31.33;;
84723;SDS011;74944;52.322;16.918;2023-12-14T23:33:18;73.00;;;34.50;;
84723;SDS011;74944;52.322;16.918;2023-12-14T23:35:44;76.15;;;30.98;;
84723;SDS011;74944;52.322;16.918;2023-12-14T23:38:11;70.18;;;31.75;;
84723;SDS011;74944;52.322;16.918;2023-12-14T23:40:38;63.60;;;27.33;;
84723;SDS011;74944;52.322;16.918;2023-12-14T23:43:05;57.72;;;25.52;;
84723;SDS011;74944;52.322;16.918;2023-12-14T23:45:31;61.17;;;25.98;;
84723;SDS011;74944;52.322;16.918;2023-12-14T23:47:58;72.63;;;31.25;;
84723;SDS011;74944;52.322;16.918;2023-12-14T23:50:23;53.17;;;23.65;;
84723;SDS011;74944;52.322;16.918;2023-12-14T23:52:49;61.78;;;28.77;;
84723;SDS011;74944;52.322;16.918;2023-12-14T23:55:14;58.35;;;25.60;;
84723;SDS011;74944;52.322;16.918;2023-12-14T23:57:40;62.03;;;27.48;;
